Time;durP1;ratioP1;P1;durP2;ratioP2;P2;SDS_P1;SDS_P2;PMS_P1;PMS_P2;Temp;Humidity;BMP_temperature;BMP_pressure;BME280_temperature;BME280_humidity;BME280_pressure;Samples;Min_cycle;Max_cycle;Signal;HPM_P1;HPM_P2
2023/09/19 00:01:57;;;;;;;1.92;0.90;;;16.60;99.90;;;;;;5085464;28;20094;-42
2023/09/19 00:04:28;;;;;;;1.42;0.73;;;16.60;99.90;;;;;;5084790;28;20048;-42
2023/09/19 00:06:54;;;;;;;2.10;1.13;;;16.60;99.90;;;;;;5086256;28;20125;-44
2023/09/19 00:09:20;;;;;;;1.60;0.82;;;16.60;99.90;;;;;;5085405;28;20468;-43
2023/09/19 00:11:47;;;;;;;1.65;0.68;;;16.50;99.90;;;;;;5085350;28;20427;-44
2023/09/19 00:14:13;;;;;;;2.00;0.77;;;16.60;99.90;;;;;;5084860;28;20028;-43
2023/09/19 00:16:41;;;;;;;2.38;0.90;;;16.50;99.90;;;;;;5085835;28;20479;-43
2023/09/19 00:19:07;;;;;;;3.63;0.88;;;16.60;99.90;;;;;;5084529;28;20012;-43
2023/09/19 00:21:32;;;;;;;3.05;1.00;;;16.60;99.90;;;;;;5085498;28;20032;-44
2023/09/19 00:23:58;;;;;;;1.33;0.80;;;16.60;99.90;;;;;;5085010;28;20129;-43
2023/09/19 00:26:24;;;;;;;3.85;1.23;;;16.60;99.90;;;;;;5084591;28;20020;-43
2023/09/19 00:28:52;;;;;;;2.53;0.80;;;16.70;99.90;;;;;;5085542;28;20102;-44
2023/09/19 00:31:25;;;;;;;2.17;0.90;;;16.70;99.90;;;;;;5084654;28;20053;-43
2023/09/19 00:33:51;;;;;;;;;;;16.70;99.90;;;;;;5084998;28;20020;-43
2023/09/19 00:36:18;;;;;;;1.98;1.10;;;16.70;99.90;;;;;;5084315;28;20011;-43
2023/09/19 00:38:45;;;;;;;2.92;1.00;;;16.70;99.90;;;;;;5085826;28;20036;-44
2023/09/19 00:41:12;;;;;;;3.97;1.25;;;16.70;99.90;;;;;;5084288;28;20024;-43
2023/09/19 00:43:40;;;;;;;3.80;1.10;;;16.60;99.90;;;;;;5085432;28;20020;-43
2023/09/19 00:46:06;;;;;;;3.83;1.30;;;16.60;99.90;;;;;;5084939;28;20032;-44
2023/09/19 00:48:37;;;;;;;2.92;1.30;;;16.60;99.90;;;;;;5084868;28;20027;-43
2023/09/19 00:51:04;;;;;;;4.13;1.83;;;16.60;99.90;;;;;;5084451;28;20099;-43
2023/09/19 00:53:31;;;;;;;2.03;1.10;;;16.60;99.90;;;;;;5085565;28;20028;-43
2023/09/19 00:55:56;;;;;;;3.85;1.38;;;16.60;99.90;;;;;;5084668;28;20027;-43
2023/09/19 00:58:22;;;;;;;3.78;1.50;;;16.60;99.90;;;;;;5084175;28;20040;-43
2023/09/19 01:00:49;;;;;;;2.75;1.23;;;16.60;99.90;;;;;;5085104;28;20042;-43
2023/09/19 01:03:15;;;;;;;2.53;1.05;;;16.60;99.90;;;;;;5084034;28;20048;-43
2023/09/19 01:05:40;;;;;;;5.43;1.50;;;16.60;99.90;;;;;;5084402;28;20387;-43
2023/09/19 01:08:07;;;;;;;3.13;1.17;;;16.60;99.90;;;;;;5083948;28;20353;-43
2023/09/19 01:10:33;;;;;;;3.75;1.30;;;16.60;99.90;;;;;;5084651;28;20028;-43
2023/09/19 01:13:21;;;;;;;3.22;1.05;;;16.60;99.90;;;;;;5086445;28;20016;-43
2023/09/19 01:16:15;;;;;;;4.72;1.90;;;16.50;99.90;;;;;;5090912;28;20445;-43
2023/09/19 01:18:59;;;;;;;5.15;1.77;;;16.50;99.90;;;;;;5083092;28;20030;-43
2023/09/19 01:21:46;;;;;;;4.05;1.40;;;16.40;99.90;;;;;;5091129;28;20055;-42
2023/09/19 01:24:49;;;;;;;3.33;1.15;;;16.40;99.90;;;;;;5090973;28;20036;-42
2023/09/19 01:27:45;;;;;;;4.97;1.60;;;16.30;99.90;;;;;;5090298;28;20550;-43
2023/09/19 01:30:17;;;;;;;6.03;1.60;;;16.30;99.90;;;;;;5070214;28;20029;-43
2023/09/19 01:32:46;;;;;;;2.65;1.20;;;16.30;99.90;;;;;;5087259;28;20023;-43
2023/09/19 01:35:13;;;;;;;5.22;1.95;;;16.20;99.90;;;;;;5091458;28;20047;-43
2023/09/19 01:37:38;;;;;;;5.20;1.65;;;16.30;99.90;;;;;;5090457;28;20035;-42
2023/09/19 01:40:20;;;;;;;7.03;1.80;;;16.20;99.90;;;;;;5090445;28;20024;-43
2023/09/19 01:42:57;;;;;;;4.25;1.75;;;16.30;99.90;;;;;;5091077;28;20031;-43
2023/09/19 01:45:50;;;;;;;5.13;1.48;;;16.30;99.90;;;;;;5091261;28;20032;-43
2023/09/19 01:48:47;;;;;;;6.55;1.50;;;16.30;99.90;;;;;;5090581;28;20047;-43
2023/09/19 01:51:20;;;;;;;4.35;1.63;;;16.30;99.90;;;;;;5069873;28;20033;-43
2023/09/19 01:54:11;;;;;;;6.65;2.08;;;16.40;99.90;;;;;;5090072;28;20063;-43
2023/09/19 01:56:50;;;;;;;7.65;2.42;;;16.40;99.90;;;;;;5091946;28;20024;-43
2023/09/19 01:59:28;;;;;;;7.43;2.63;;;16.40;99.90;;;;;;5090141;28;20558;-43
2023/09/19 02:01:55;;;;;;;8.13;1.98;;;16.40;99.90;;;;;;5090897;28;20053;-43
2023/09/19 02:04:20;;;;;;;3.83;1.80;;;16.40;99.90;;;;;;5089580;28;20040;-44
2023/09/19 02:06:49;;;;;;;4.90;1.55;;;16.30;99.90;;;;;;5090838;28;20036;-43
2023/09/19 02:09:15;;;;;;;4.50;1.90;;;16.30;99.90;;;;;;5090031;28;20082;-44
2023/09/19 02:11:42;;;;;;;5.53;2.10;;;16.30;99.90;;;;;;5091368;28;20054;-43
2023/09/19 02:14:08;;;;;;;7.95;2.00;;;16.20;99.90;;;;;;5090351;28;20028;-43
2023/09/19 02:16:37;;;;;;;6.15;1.63;;;16.20;99.90;;;;;;5090906;28;20142;-43
2023/09/19 02:19:05;;;;;;;6.55;1.80;;;16.10;99.90;;;;;;5089825;28;20485;-44
2023/09/19 02:21:31;;;;;;;5.07;1.77;;;16.10;99.90;;;;;;5090605;28;20040;-43
2023/09/19 02:23:58;;;;;;;6.28;2.03;;;16.00;99.90;;;;;;5089599;28;20532;-44
2023/09/19 02:26:24;;;;;;;5.45;1.90;;;16.00;99.90;;;;;;5086392;28;20043;-45
2023/09/19 02:28:49;;;;;;;5.20;1.98;;;15.90;99.90;;;;;;5087644;28;20406;-43
2023/09/19 02:31:16;;;;;;;6.05;1.80;;;15.90;99.90;;;;;;5087695;28;20035;-43
2023/09/19 02:33:42;;;;;;;5.22;1.90;;;15.80;99.90;;;;;;5087269;28;20034;-43
2023/09/19 02:36:08;;;;;;;6.95;1.77;;;15.80;99.90;;;;;;5087220;28;20028;-44
2023/09/19 02:38:34;;;;;;;5.28;1.98;;;15.70;99.90;;;;;;5087996;28;20032;-43
2023/09/19 02:40:59;;;;;;;5.53;1.70;;;15.70;99.90;;;;;;5087096;28;20467;-43
2023/09/19 02:43:27;;;;;;;5.75;1.63;;;15.70;99.90;;;;;;5087210;28;20129;-43
2023/09/19 02:45:53;;;;;;;3.05;1.70;;;15.60;99.90;;;;;;5083616;28;20450;-43
2023/09/19 02:48:19;;;;;;;5.45;1.80;;;15.60;99.90;;;;;;5087160;28;20503;-43
2023/09/19 02:50:50;;;;;;;4.13;1.95;;;15.50;99.90;;;;;;5086902;28;20020;-43
2023/09/19 02:53:16;;;;;;;4.53;1.98;;;15.50;99.90;;;;;;5086291;28;20032;-43
2023/09/19 02:55:42;;;;;;;4.45;1.50;;;15.50;99.90;;;;;;5087101;28;20089;-43
2023/09/19 02:58:08;;;;;;;6.22;2.00;;;15.50;99.90;;;;;;5086595;28;20028;-43
2023/09/19 03:00:36;;;;;;;5.57;1.80;;;15.40;99.90;;;;;;5086558;28;20016;-43
2023/09/19 03:03:02;;;;;;;6.63;1.75;;;15.40;99.90;;;;;;5086267;28;20568;-44
2023/09/19 03:05:30;;;;;;;4.82;1.70;;;15.40;99.90;;;;;;5086970;28;20028;-44
2023/09/19 03:07:56;;;;;;;4.72;1.77;;;15.40;99.90;;;;;;5086510;28;20032;-43
2023/09/19 03:10:23;;;;;;;4.38;1.52;;;15.30;99.90;;;;;;5086139;28;20039;-44
2023/09/19 03:12:51;;;;;;;3.20;1.60;;;15.30;99.90;;;;;;5087434;28;20023;-43
2023/09/19 03:15:20;;;;;;;5.53;1.90;;;15.30;99.90;;;;;;5085554;28;20069;-42
2023/09/19 03:17:48;;;;;;;4.90;1.88;;;15.30;99.90;;;;;;5086432;28;20036;-43
2023/09/19 03:20:17;;;;;;;5.13;1.55;;;15.30;99.90;;;;;;5083813;28;20062;-43
2023/09/19 03:22:43;;;;;;;6.68;1.90;;;15.20;99.90;;;;;;5086237;28;20077;-43
2023/09/19 03:25:11;;;;;;;6.30;1.80;;;15.10;99.90;;;;;;5085847;28;20024;-43
2023/09/19 03:27:40;;;;;;;6.25;1.33;;;15.20;99.90;;;;;;5087108;28;20028;-42
2023/09/19 03:30:08;;;;;;;5.13;1.63;;;15.10;99.90;;;;;;5085622;28;20111;-43
2023/09/19 03:32:43;;;;;;;5.88;1.80;;;15.10;99.90;;;;;;5086166;28;20081;-43
2023/09/19 03:35:17;;;;;;;5.07;1.88;;;15.10;99.90;;;;;;5086207;28;20032;-43
2023/09/19 03:37:43;;;;;;;3.83;1.58;;;15.00;99.90;;;;;;5083983;28;20055;-43
2023/09/19 03:40:13;;;;;;;4.57;1.88;;;15.00;99.90;;;;;;5086276;28;20048;-43
2023/09/19 03:42:40;;;;;;;6.45;2.00;;;14.90;99.90;;;;;;5085607;28;20020;-43
2023/09/19 03:45:12;;;;;;;3.72;1.40;;;14.90;99.90;;;;;;5085890;28;20028;-43
2023/09/19 03:47:38;;;;;;;;;;;14.90;99.90;;;;;;5086648;28;20074;-43
2023/09/19 03:50:05;;;;;;;4.30;1.27;;;14.90;99.90;;;;;;5085887;28;19912;-42
2023/09/19 03:52:34;;;;;;;5.05;1.55;;;14.90;99.90;;;;;;5085952;28;20036;-42
2023/09/19 03:55:00;;;;;;;4.65;1.45;;;14.80;99.90;;;;;;5085776;28;20035;-44
2023/09/19 03:57:28;;;;;;;6.03;1.70;;;14.80;99.90;;;;;;5085803;28;20028;-44
2023/09/19 03:59:54;;;;;;;5.93;1.75;;;14.80;99.90;;;;;;5085428;28;20024;-43
2023/09/19 04:02:32;;;;;;;5.95;1.80;;;14.80;99.90;;;;;;5085534;28;20366;-44
2023/09/19 04:05:02;;;;;;;5.65;1.55;;;14.80;99.90;;;;;;5085475;28;20063;-43
2023/09/19 04:07:28;;;;;;;3.78;1.17;;;14.70;99.90;;;;;;5085538;28;20144;-43
2023/09/19 04:09:54;;;;;;;5.07;1.45;;;14.70;99.90;;;;;;5086428;28;20036;-43
2023/09/19 04:12:20;;;;;;;5.22;1.67;;;14.70;99.90;;;;;;5085546;28;20020;-43
2023/09/19 04:14:46;;;;;;;5.55;1.58;;;14.70;99.90;;;;;;5086294;28;20387;-43
2023/09/19 04:17:12;;;;;;;5.35;1.73;;;14.70;99.90;;;;;;5085014;28;20502;-44
2023/09/19 04:19:37;;;;;;;3.78;1.60;;;14.60;99.90;;;;;;5085140;28;20020;-44
2023/09/19 04:22:04;;;;;;;4.82;1.52;;;14.70;99.90;;;;;;5084662;28;20115;-43
2023/09/19 04:24:30;;;;;;;4.20;1.35;;;14.60;99.90;;;;;;5085092;28;20039;-43
2023/09/19 04:26:57;;;;;;;2.80;1.65;;;14.60;99.90;;;;;;5085247;28;20016;-42
2023/09/19 04:29:22;;;;;;;7.68;1.50;;;14.70;99.90;;;;;;5084770;28;20044;-43
2023/09/19 04:31:48;;;;;;;4.00;1.63;;;14.60;99.90;;;;;;5085517;28;20500;-43
2023/09/19 04:34:17;;;;;;;4.10;1.60;;;14.60;99.90;;;;;;5084542;28;20028;-44
2023/09/19 04:36:43;;;;;;;9.63;1.85;;;14.60;99.90;;;;;;5085062;28;20035;-43
2023/09/19 04:39:33;;;;;;;6.20;1.92;;;14.60;99.90;;;;;;5084364;28;20023;-43
2023/09/19 04:41:58;;;;;;;6.45;1.90;;;14.60;99.90;;;;;;5084447;28;20074;-44
2023/09/19 04:44:27;;;;;;;5.40;1.40;;;14.60;99.90;;;;;;5084790;28;20031;-42
2023/09/19 04:46:53;;;;;;;5.00;1.48;;;14.60;99.90;;;;;;5084987;28;20085;-44
2023/09/19 04:49:18;;;;;;;5.35;1.75;;;14.60;99.90;;;;;;5083973;28;20039;-43
2023/09/19 04:51:46;;;;;;;5.50;1.40;;;14.60;99.90;;;;;;5085146;28;20458;-43
2023/09/19 04:54:13;;;;;;;7.20;1.52;;;14.60;99.90;;;;;;5083935;28;20057;-43
2023/09/19 04:56:40;;;;;;;6.03;1.88;;;14.50;99.90;;;;;;5084978;28;20052;-43
2023/09/19 04:59:06;;;;;;;4.45;1.70;;;14.50;99.90;;;;;;5084281;28;20024;-44
2023/09/19 05:01:31;;;;;;;4.82;1.50;;;14.50;99.90;;;;;;5084732;28;20034;-43
2023/09/19 05:03:57;;;;;;;5.68;1.65;;;14.50;99.90;;;;;;5084807;28;20680;-43
2023/09/19 05:06:23;;;;;;;5.22;1.60;;;14.50;99.90;;;;;;5085110;28;20036;-43
2023/09/19 05:08:50;;;;;;;3.05;1.48;;;14.50;99.90;;;;;;5084454;28;20442;-42
2023/09/19 05:11:17;;;;;;;2.92;1.40;;;14.50;99.90;;;;;;5084569;28;20179;-42
2023/09/19 05:13:43;;;;;;;3.25;1.60;;;14.50;99.90;;;;;;5084255;28;20047;-42
2023/09/19 05:16:12;;;;;;;5.22;1.70;;;14.50;99.90;;;;;;5084062;28;20016;-42
2023/09/19 05:18:37;;;;;;;3.80;1.42;;;14.50;99.90;;;;;;5084839;28;20024;-43
2023/09/19 05:21:03;;;;;;;6.28;1.50;;;14.50;99.90;;;;;;5083816;28;20790;-43
2023/09/19 05:23:29;;;;;;;3.72;1.40;;;14.50;99.90;;;;;;5085381;28;20028;-43
2023/09/19 05:25:56;;;;;;;3.65;1.23;;;14.60;99.90;;;;;;5084193;28;20693;-43
2023/09/19 05:28:22;;;;;;;3.13;1.33;;;14.50;99.90;;;;;;5083998;28;20031;-44
2023/09/19 05:30:48;;;;;;;5.40;1.75;;;14.60;99.90;;;;;;5084434;28;20024;-44
2023/09/19 05:33:18;;;;;;;2.85;1.30;;;14.60;99.90;;;;;;5084093;28;20387;-43
2023/09/19 05:35:43;;;;;;;4.55;1.63;;;14.60;99.90;;;;;;5084403;28;20052;-43
2023/09/19 05:38:09;;;;;;;6.57;1.40;;;14.60;99.90;;;;;;5081296;28;20060;-43
2023/09/19 05:40:35;;;;;;;3.60;1.73;;;14.70;99.90;;;;;;5084019;28;20035;-43
2023/09/19 05:43:03;;;;;;;6.30;1.90;;;14.70;99.90;;;;;;5083188;28;20027;-43
2023/09/19 05:45:36;;;;;;;4.22;1.70;;;14.70;99.90;;;;;;5083900;28;20028;-44
2023/09/19 05:48:09;;;;;;;;;;;14.70;99.90;;;;;;5083876;28;20146;-44
2023/09/19 05:50:34;;;;;;;5.95;1.58;;;14.70;99.90;;;;;;5083536;28;19998;-44
2023/09/19 05:53:04;;;;;;;5.30;1.50;;;14.70;99.90;;;;;;5083057;28;20634;-43
2023/09/19 05:55:30;;;;;;;5.82;1.92;;;14.80;99.90;;;;;;5083892;28;20020;-43
2023/09/19 05:57:55;;;;;;;6.43;1.92;;;14.80;99.90;;;;;;5083642;28;20067;-43
2023/09/19 06:00:23;;;;;;;5.75;1.52;;;14.80;99.90;;;;;;5086166;28;20059;-43
2023/09/19 06:02:52;;;;;;;6.85;1.98;;;14.80;99.90;;;;;;5087442;28;20127;-44
2023/09/19 06:05:18;;;;;;;4.85;2.33;;;14.80;99.90;;;;;;5086836;28;20116;-43
2023/09/19 06:07:43;;;;;;;5.28;1.58;;;14.80;99.90;;;;;;5087100;28;20834;-43
2023/09/19 06:10:09;;;;;;;4.95;1.88;;;14.90;99.90;;;;;;5087080;28;20032;-43
2023/09/19 06:12:45;;;;;;;8.35;2.25;;;14.90;99.90;;;;;;5086915;28;20479;-43
2023/09/19 06:15:15;;;;;;;5.45;1.80;;;14.90;99.90;;;;;;5086753;28;20085;-44
2023/09/19 06:17:57;;;;;;;5.40;2.00;;;14.90;99.90;;;;;;5086694;28;20020;-43
2023/09/19 06:20:24;;;;;;;6.97;1.90;;;14.90;99.90;;;;;;5087147;28;20051;-44
2023/09/19 06:22:50;;;;;;;5.75;1.67;;;14.90;99.90;;;;;;5086820;28;20115;-44
2023/09/19 06:25:20;;;;;;;4.57;1.42;;;15.00;99.90;;;;;;5086280;28;20103;-43
2023/09/19 06:27:53;;;;;;;6.10;2.00;;;15.00;99.90;;;;;;5086996;28;20028;-42
2023/09/19 06:30:20;;;;;;;2.95;1.50;;;15.00;99.90;;;;;;5087093;28;20031;-42
2023/09/19 06:32:45;;;;;;;3.63;1.80;;;15.10;99.90;;;;;;5086467;28;20031;-42
2023/09/19 06:35:15;;;;;;;4.15;1.67;;;15.10;99.90;;;;;;5086883;28;20032;-42
2023/09/19 06:37:42;;;;;;;4.40;1.17;;;15.10;99.90;;;;;;5085643;28;20463;-43
2023/09/19 06:40:14;;;;;;;6.25;1.70;;;15.20;99.90;;;;;;5086055;28;20024;-43
2023/09/19 06:42:46;;;;;;;4.25;1.60;;;15.20;99.90;;;;;;5087773;28;20031;-43
2023/09/19 06:45:17;;;;;;;4.53;2.05;;;15.30;99.90;;;;;;5085960;28;20035;-43
2023/09/19 06:47:50;;;;;;;6.43;1.70;;;15.30;99.90;;;;;;5087145;28;20051;-43
2023/09/19 06:50:19;;;;;;;;;;;15.30;99.90;;;;;;5087465;28;20044;-43
2023/09/19 06:53:00;;;;;;;5.10;2.08;;;15.40;99.90;;;;;;5086842;28;20390;-44
2023/09/19 06:55:30;;;;;;;6.28;1.80;;;15.30;99.90;;;;;;5087714;28;20035;-42
2023/09/19 06:57:57;;;;;;;8.95;2.28;;;15.40;99.90;;;;;;5087376;28;20081;-43
2023/09/19 07:00:23;;;;;;;5.50;1.70;;;15.40;99.90;;;;;;5086743;28;20201;-43
2023/09/19 07:03:03;;;;;;;4.88;1.70;;;15.50;99.90;;;;;;5086475;28;20044;-42
2023/09/19 07:05:30;;;;;;;3.50;1.60;;;15.50;99.90;;;;;;5087482;28;20035;-43
2023/09/19 07:07:58;;;;;;;5.72;2.35;;;15.60;99.90;;;;;;5086662;28;20097;-43
2023/09/19 07:10:28;;;;;;;6.88;1.80;;;15.60;99.90;;;;;;5085769;28;20030;-43
2023/09/19 07:12:58;;;;;;;5.03;2.38;;;15.60;99.90;;;;;;5086930;28;20502;-43
2023/09/19 07:15:26;;;;;;;6.70;2.42;;;15.70;99.90;;;;;;5085588;28;20567;-43
2023/09/19 07:17:53;;;;;;;5.50;1.60;;;15.70;99.90;;;;;;5087051;28;20016;-43
2023/09/19 07:20:20;;;;;;;4.82;1.88;;;15.70;99.90;;;;;;5086312;28;20024;-44
2023/09/19 07:22:47;;;;;;;9.02;2.05;;;15.80;99.90;;;;;;5087022;28;20094;-43
2023/09/19 07:25:14;;;;;;;6.38;1.52;;;15.80;99.90;;;;;;5082709;28;20020;-43
2023/09/19 07:27:40;;;;;;;5.00;2.03;;;15.80;99.90;;;;;;5086217;28;20016;-43
2023/09/19 07:30:08;;;;;;;4.05;1.77;;;15.90;99.90;;;;;;5086098;28;20044;-44
2023/09/19 07:32:34;;;;;;;6.50;1.63;;;16.00;99.90;;;;;;5086309;28;20043;-43
2023/09/19 07:35:00;;;;;;;5.22;1.52;;;16.00;99.90;;;;;;5085433;28;20024;-43
2023/09/19 07:37:26;;;;;;;5.30;1.90;;;16.00;99.90;;;;;;5087062;28;20035;-43
2023/09/19 07:39:51;;;;;;;4.82;1.60;;;16.10;99.90;;;;;;5086482;28;20053;-43
2023/09/19 07:42:18;;;;;;;6.05;1.52;;;16.10;99.90;;;;;;5084704;28;20117;-43
2023/09/19 07:44:47;;;;;;;10.30;2.40;;;16.20;99.90;;;;;;5085989;28;20027;-43
2023/09/19 07:47:14;;;;;;;5.85;2.38;;;16.20;99.90;;;;;;5085667;28;20109;-41
2023/09/19 07:49:42;;;;;;;5.15;1.98;;;16.30;99.90;;;;;;5085462;28;20126;-43
2023/09/19 07:52:07;;;;;;;6.90;1.85;;;16.30;99.90;;;;;;5085398;28;20467;-42
2023/09/19 07:54:35;;;;;;;3.83;1.50;;;16.30;99.90;;;;;;5086426;28;20043;-43
2023/09/19 07:57:04;;;;;;;4.38;1.75;;;16.40;99.90;;;;;;5085735;28;20034;-43
2023/09/19 07:59:29;;;;;;;4.78;1.73;;;16.40;99.90;;;;;;5086322;28;20049;-42
2023/09/19 08:01:55;;;;;;;4.70;1.90;;;16.40;99.90;;;;;;5085866;28;20152;-44
2023/09/19 08:04:21;;;;;;;3.60;1.60;;;16.50;99.90;;;;;;5084861;28;20032;-43
2023/09/19 08:06:47;;;;;;;7.30;1.98;;;16.50;99.90;;;;;;5086030;28;20025;-43
2023/09/19 08:09:17;;;;;;;5.60;1.75;;;16.50;99.90;;;;;;5085169;28;20365;-43
2023/09/19 08:11:42;;;;;;;8.55;1.90;;;16.60;99.90;;;;;;5085272;28;20377;-42
2023/09/19 08:14:08;;;;;;;6.60;2.25;;;16.60;99.90;;;;;;5085279;28;20024;-43
2023/09/19 08:16:33;;;;;;;4.78;1.95;;;16.70;99.90;;;;;;5085762;28;20028;-43
2023/09/19 08:18:59;;;;;;;4.93;1.60;;;16.70;99.90;;;;;;5085472;28;20463;-43
2023/09/19 08:21:26;;;;;;;5.65;1.83;;;16.70;99.90;;;;;;5086033;28;20111;-43
2023/09/19 08:23:52;;;;;;;8.00;2.03;;;16.80;99.90;;;;;;5083103;28;20028;-43
2023/09/19 08:26:19;;;;;;;7.50;2.03;;;16.80;99.90;;;;;;5084530;28;20047;-43
2023/09/19 08:28:45;;;;;;;6.30;1.90;;;16.90;99.90;;;;;;5085656;28;20067;-42
2023/09/19 08:31:10;;;;;;;6.32;1.77;;;16.90;99.90;;;;;;5084205;28;20063;-43
2023/09/19 08:33:36;;;;;;;5.20;1.40;;;17.10;99.90;;;;;;5084678;28;20032;-42
2023/09/19 08:36:06;;;;;;;6.45;1.88;;;17.20;99.90;;;;;;5084640;28;20382;-43
2023/09/19 08:38:34;;;;;;;9.93;2.40;;;17.30;99.90;;;;;;5083611;28;20031;-43
2023/09/19 08:41:10;;;;;;;7.97;1.88;;;17.40;99.90;;;;;;5081574;28;20046;-42
2023/09/19 08:43:35;;;;;;;5.03;1.98;;;17.40;99.90;;;;;;5085818;28;20028;-43
2023/09/19 08:46:14;;;;;;;8.95;2.30;;;17.50;99.90;;;;;;5084281;28;20077;-42
2023/09/19 08:48:58;;;;;;;8.38;2.03;;;17.50;99.90;;;;;;5085205;28;20050;-42
2023/09/19 08:51:32;;;;;;;8.75;1.80;;;17.60;99.90;;;;;;5084708;28;20052;-43
2023/09/19 08:54:01;;;;;;;4.85;1.95;;;17.60;99.90;;;;;;5084537;28;20534;-43
2023/09/19 08:56:28;;;;;;;6.10;2.00;;;17.70;99.90;;;;;;5084849;28;20440;-46
2023/09/19 08:59:02;;;;;;;6.45;2.00;;;17.80;99.90;;;;;;5080812;28;20654;-43
2023/09/19 09:01:29;;;;;;;9.93;2.20;;;17.80;99.90;;;;;;5083973;28;20490;-43
2023/09/19 09:03:56;;;;;;;8.40;2.20;;;17.80;99.90;;;;;;5080730;28;20040;-43
2023/09/19 09:06:23;;;;;;;6.93;2.70;;;17.80;99.90;;;;;;5083359;28;20121;-43
2023/09/19 09:08:51;;;;;;;6.63;1.83;;;17.90;99.90;;;;;;5084255;28;20077;-43
2023/09/19 09:11:17;;;;;;;5.47;1.80;;;17.90;99.90;;;;;;5084432;28;20559;-43
2023/09/19 09:13:46;;;;;;;7.15;1.92;;;17.90;99.90;;;;;;5084260;28;20032;-42
2023/09/19 09:16:14;;;;;;;10.65;2.78;;;18.00;99.90;;;;;;5081821;28;20110;-43
2023/09/19 09:18:40;;;;;;;5.88;1.95;;;18.00;99.90;;;;;;5084801;28;20391;-43
2023/09/19 09:21:06;;;;;;;6.03;2.13;;;18.00;99.90;;;;;;5083933;28;20020;-42
2023/09/19 09:23:34;;;;;;;9.15;2.50;;;18.00;99.90;;;;;;5084832;28;20472;-43
2023/09/19 09:26:05;;;;;;;8.00;1.98;;;18.10;99.90;;;;;;5064321;28;20111;-43
2023/09/19 09:28:33;;;;;;;5.90;1.52;;;18.10;99.90;;;;;;5078778;28;20028;-42
2023/09/19 09:30:59;;;;;;;6.85;2.33;;;18.10;99.90;;;;;;5084507;28;20024;-43
2023/09/19 09:33:25;;;;;;;6.22;1.92;;;18.30;99.90;;;;;;5084452;28;20024;-42
2023/09/19 09:35:56;;;;;;;5.25;1.67;;;18.40;99.90;;;;;;5088359;28;20024;-43
2023/09/19 09:38:46;;;;;;;5.30;1.95;;;18.50;99.90;;;;;;5088587;28;20641;-42
2023/09/19 09:41:15;;;;;;;7.05;1.85;;;18.50;99.90;;;;;;5087435;28;20036;-42
2023/09/19 09:43:45;;;;;;;8.98;1.92;;;18.60;99.90;;;;;;5088411;28;20471;-43
2023/09/19 09:46:58;;;;;;;7.75;2.10;;;18.60;99.90;;;;;;5088608;28;20032;-43
2023/09/19 09:49:26;;;;;;;6.38;1.98;;;18.60;99.90;;;;;;5087651;28;20487;-43
2023/09/19 09:52:07;;;;;;;4.65;1.88;;;18.70;99.90;;;;;;5067955;28;20528;-43
2023/09/19 09:54:36;;;;;;;5.07;1.88;;;18.70;99.90;;;;;;5084328;28;20066;-42
2023/09/19 09:57:25;;;;;;;4.43;1.65;;;18.80;99.90;;;;;;5067521;28;20027;-43
2023/09/19 10:00:04;;;;;;;7.13;2.38;;;18.80;99.90;;;;;;5085193;28;20464;-43
2023/09/19 10:02:39;;;;;;;4.68;1.90;;;18.80;99.90;;;;;;5087869;28;20061;-42
2023/09/19 10:08:08;;;;;;;6.22;1.92;;;18.80;99.90;;;;;;5088676;28;20028;-44
2023/09/19 10:13:15;;;;;;;4.78;1.95;;;18.90;99.90;;;;;;5087779;28;20028;-43
2023/09/19 10:15:50;;;;;;;6.40;2.20;;;18.90;99.90;;;;;;5087788;28;20043;-43
2023/09/19 10:18:20;;;;;;;7.03;2.13;;;19.00;99.90;;;;;;5066168;28;20072;-44
2023/09/19 10:20:48;;;;;;;5.85;1.90;;;19.00;99.90;;;;;;5087232;28;20028;-43
2023/09/19 10:23:20;;;;;;;6.82;2.03;;;19.10;99.90;;;;;;5087332;28;20024;-43
2023/09/19 10:25:48;;;;;;;6.07;2.00;;;19.20;99.90;;;;;;5087771;28;20024;-43
2023/09/19 10:28:21;;;;;;;6.57;2.13;;;19.30;99.90;;;;;;5087562;28;20025;-43
2023/09/19 10:30:53;;;;;;;7.78;2.13;;;19.40;99.90;;;;;;5086796;28;20054;-43
2023/09/19 10:33:25;;;;;;;6.13;2.05;;;19.50;99.90;;;;;;5067303;28;20023;-42
2023/09/19 10:35:51;;;;;;;;;;;19.50;99.90;;;;;;5084183;28;20032;-42
2023/09/19 10:38:24;;;;;;;4.72;1.70;;;19.60;99.90;;;;;;5086991;28;19912;-43
2023/09/19 10:40:50;;;;;;;;;;;19.70;99.90;;;;;;5087098;28;20484;-42
2023/09/19 10:43:21;;;;;;;8.82;2.33;;;19.80;99.90;;;;;;5086737;28;19969;-43
2023/09/19 10:45:53;;;;;;;9.60;2.10;;;19.90;99.90;;;;;;5085277;28;20022;-43
2023/09/19 10:48:19;;;;;;;5.55;2.05;;;19.90;99.90;;;;;;5086759;28;20031;-42
2023/09/19 10:51:00;;;;;;;5.78;1.98;;;20.00;99.90;;;;;;5087245;28;20027;-43
2023/09/19 10:53:28;;;;;;;7.80;2.22;;;20.00;99.90;;;;;;5086795;28;20036;-43
2023/09/19 10:55:59;;;;;;;6.68;1.63;;;20.00;99.90;;;;;;5087685;28;20051;-43
2023/09/19 10:58:29;;;;;;;6.38;2.08;;;20.00;99.90;;;;;;5086691;28;20494;-43
2023/09/19 11:01:12;;;;;;;5.15;2.15;;;20.00;99.90;;;;;;5086106;28;20028;-43
2023/09/19 11:03:43;;;;;;;6.55;1.85;;;20.00;99.90;;;;;;5086874;28;20108;-43
2023/09/19 11:06:19;;;;;;;4.38;1.92;;;20.00;99.90;;;;;;5085394;28;20023;-43
2023/09/19 11:11:40;;;;;;;6.72;2.20;;;20.10;99.90;;;;;;5087310;28;20141;-43
2023/09/19 11:14:23;;;;;;;4.75;1.65;;;20.00;99.90;;;;;;5086699;28;20113;-43
2023/09/19 11:17:07;;;;;;;6.07;1.90;;;19.90;99.90;;;;;;5086637;28;20110;-43
2023/09/19 11:33:03;;;;;;;5.45;1.90;;;19.90;99.90;;;;;;5125330;27;20506;-36
2023/09/19 11:36:14;;;;;;;5.97;2.15;;;20.60;99.90;;;;;;5058780;27;20839;-36
2023/09/19 11:38:47;;;;;;;6.07;1.92;;;20.50;99.90;;;;;;5135535;27;20059;-36
2023/09/19 11:43:48;;;;;;;4.57;1.67;;;20.30;99.90;;;;;;5113275;27;20394;-35
2023/09/19 11:46:21;;;;;;;6.38;1.90;;;20.20;99.90;;;;;;5078725;28;20016;-36
2023/09/19 11:48:49;;;;;;;4.30;2.00;;;20.20;99.90;;;;;;5145307;27;20028;-35
2023/09/19 11:51:23;;;;;;;5.93;1.60;;;20.20;99.90;;;;;;5077091;27;20024;-36
2023/09/19 11:53:53;;;;;;;4.88;1.80;;;20.20;99.90;;;;;;5145171;27;20024;-37
2023/09/19 11:56:27;;;;;;;6.95;2.15;;;20.20;99.90;;;;;;5077731;28;20558;-36
2023/09/19 11:58:55;;;;;;;6.05;1.80;;;20.20;99.90;;;;;;5145141;27;20049;-34
2023/09/19 12:01:34;;;;;;;5.40;1.90;;;20.30;99.90;;;;;;5077661;27;20039;-36
2023/09/19 12:04:04;;;;;;;6.43;1.83;;;20.30;99.90;;;;;;5110121;27;20028;-36
2023/09/19 12:06:33;;;;;;;5.72;2.05;;;20.40;99.90;;;;;;5185092;27;20138;-35
2023/09/19 12:08:59;;;;;;;7.30;1.67;;;20.40;99.90;;;;;;5121355;27;20016;-35
2023/09/19 12:11:33;;;;;;;6.28;2.13;;;20.40;99.90;;;;;;5181331;27;20032;-35
2023/09/19 12:14:00;;;;;;;5.07;1.50;;;20.50;99.90;;;;;;5130420;27;20021;-35
2023/09/19 12:16:30;;;;;;;5.18;1.30;;;20.50;99.90;;;;;;5174183;27;20078;-35
2023/09/19 12:18:57;;;;;;;4.75;1.85;;;20.50;99.90;;;;;;5138907;27;20702;-34
2023/09/19 12:21:36;;;;;;;5.18;1.92;;;20.50;99.90;;;;;;5099748;27;20075;-35
2023/09/19 12:24:19;;;;;;;5.45;1.60;;;20.50;99.90;;;;;;5106883;27;20479;-36
2023/09/19 12:26:47;;;;;;;4.63;1.50;;;20.50;99.90;;;;;;5172139;27;20044;-34
2023/09/19 12:29:20;;;;;;;4.90;1.45;;;20.60;99.90;;;;;;5141361;27;20034;-36
2023/09/19 12:31:55;;;;;;;;;;;20.70;99.90;;;;;;5159981;27;20046;-35
2023/09/19 12:34:34;;;;;;;3.70;1.23;;;20.80;99.90;;;;;;5129747;27;19996;-37
2023/09/19 12:37:20;;;;;;;3.47;1.73;;;20.80;99.90;;;;;;5153334;27;20154;-36
2023/09/19 12:39:49;;;;;;;4.40;1.45;;;20.90;99.90;;;;;;5119185;27;20384;-36
2023/09/19 12:42:22;;;;;;;5.60;1.40;;;20.90;99.90;;;;;;5157724;27;20086;-35
2023/09/19 12:45:00;;;;;;;3.42;1.00;;;20.70;99.90;;;;;;5124332;27;20483;-37
2023/09/19 12:47:27;;;;;;;4.43;1.20;;;20.70;99.90;;;;;;5157607;27;20026;-35
2023/09/19 12:50:13;;;;;;;3.15;1.10;;;20.60;99.90;;;;;;5129045;27;20489;-36
2023/09/19 12:52:48;;;;;;;2.45;0.95;;;20.50;99.90;;;;;;5159028;27;20022;-35
2023/09/19 12:55:22;;;;;;;2.30;1.10;;;20.50;99.90;;;;;;5121065;27;20039;-35
2023/09/19 12:57:58;;;;;;;2.78;0.90;;;20.50;99.90;;;;;;5157613;27;20038;-37
2023/09/19 13:00:44;;;;;;;3.80;1.00;;;20.40;99.90;;;;;;5120622;27;20032;-36
2023/09/19 13:03:18;;;;;;;1.85;1.05;;;20.40;99.90;;;;;;5107837;27;20414;-36
2023/09/19 13:05:48;;;;;;;3.67;1.25;;;20.40;99.90;;;;;;5119572;27;20046;-38
2023/09/19 13:08:31;;;;;;;3.72;1.33;;;20.40;99.90;;;;;;5071058;27;20028;-36
2023/09/19 13:11:14;;;;;;;2.40;0.90;;;20.30;99.90;;;;;;5120772;27;20036;-35
2023/09/19 13:13:53;;;;;;;4.72;1.25;;;20.30;99.90;;;;;;5042724;28;20130;-35
2023/09/19 13:16:21;;;;;;;3.60;1.65;;;20.30;99.90;;;;;;5125048;27;20033;-36
2023/09/19 13:18:56;;;;;;;2.95;1.00;;;20.30;99.90;;;;;;5043780;28;20024;-36
2023/09/19 13:21:36;;;;;;;3.20;1.25;;;20.40;99.90;;;;;;5118546;27;20119;-37
2023/09/19 13:24:25;;;;;;;3.78;1.08;;;20.40;99.90;;;;;;5043615;28;20494;-37
2023/09/19 13:26:51;;;;;;;4.03;1.25;;;20.40;99.90;;;;;;5047431;28;20420;-35
2023/09/19 13:29:18;;;;;;;2.30;0.90;;;20.40;99.90;;;;;;5063255;28;20514;-37